sensor_id;sensor_type;location;lat;lon;timestamp;P1;durP1;ratioP1;P2;durP2;ratioP2
57337;SDS011;43173;50.980;18.204;2023-10-09T00:01:27;9.80;;;4.30;;
57337;SDS011;43173;50.980;18.204;2023-10-09T00:03:53;7.80;;;4.70;;
57337;SDS011;43173;50.980;18.204;2023-10-09T00:06:21;8.10;;;4.50;;
57337;SDS011;43173;50.980;18.204;2023-10-09T00:09:04;11.70;;;4.80;;
57337;SDS011;43173;50.980;18.204;2023-10-09T00:11:46;9.50;;;4.60;;
57337;SDS011;43173;50.980;18.204;2023-10-09T00:14:13;10.50;;;4.30;;
57337;SDS011;43173;50.980;18.204;2023-10-09T00:16:41;7.20;;;4.00;;
57337;SDS011;43173;50.980;18.204;2023-10-09T00:19:22;8.80;;;4.30;;
57337;SDS011;43173;50.980;18.204;2023-10-09T00:22:04;10.00;;;4.80;;
57337;SDS011;43173;50.980;18.204;2023-10-09T00:24:34;8.30;;;5.10;;
57337;SDS011;43173;50.980;18.204;2023-10-09T00:27:00;10.60;;;4.70;;
57337;SDS011;43173;50.980;18.204;2023-10-09T00:29:37;7.80;;;4.50;;
57337;SDS011;43173;50.980;18.204;2023-10-09T00:32:09;8.60;;;4.90;;
57337;SDS011;43173;50.980;18.204;2023-10-09T00:34:42;10.50;;;5.20;;
57337;SDS011;43173;50.980;18.204;2023-10-09T00:37:08;8.80;;;4.80;;
57337;SDS011;43173;50.980;18.204;2023-10-09T00:39:48;7.60;;;4.30;;
57337;SDS011;43173;50.980;18.204;2023-10-09T00:42:21;9.70;;;4.40;;
57337;SDS011;43173;50.980;18.204;2023-10-09T00:45:03;9.00;;;4.60;;
57337;SDS011;43173;50.980;18.204;2023-10-09T00:47:33;13.00;;;4.90;;
57337;SDS011;43173;50.980;18.204;2023-10-09T00:50:03;7.90;;;4.80;;
57337;SDS011;43173;50.980;18.204;2023-10-09T00:52:47;8.30;;;4.20;;
57337;SDS011;43173;50.980;18.204;2023-10-09T00:55:20;9.50;;;4.90;;
57337;SDS011;43173;50.980;18.204;2023-10-09T00:57:52;11.90;;;4.40;;
57337;SDS011;43173;50.980;18.204;2023-10-09T01:00:25;9.80;;;4.80;;
57337;SDS011;43173;50.980;18.204;2023-10-09T01:03:01;9.00;;;4.90;;
57337;SDS011;43173;50.980;18.204;2023-10-09T01:05:44;7.10;;;4.30;;
57337;SDS011;43173;50.980;18.204;2023-10-09T01:08:22;9.60;;;4.20;;
57337;SDS011;43173;50.980;18.204;2023-10-09T01:10:58;9.50;;;4.50;;
57337;SDS011;43173;50.980;18.204;2023-10-09T01:13:41;9.50;;;4.50;;
57337;SDS011;43173;50.980;18.204;2023-10-09T01:16:26;7.10;;;4.20;;
57337;SDS011;43173;50.980;18.204;2023-10-09T01:18:56;7.40;;;4.30;;
57337;SDS011;43173;50.980;18.204;2023-10-09T01:21:23;8.50;;;4.80;;
57337;SDS011;43173;50.980;18.204;2023-10-09T01:23:52;8.40;;;5.00;;
57337;SDS011;43173;50.980;18.204;2023-10-09T01:26:41;7.30;;;4.60;;
57337;SDS011;43173;50.980;18.204;2023-10-09T01:29:18;9.10;;;4.60;;
57337;SDS011;43173;50.980;18.204;2023-10-09T01:31:48;11.50;;;4.80;;
57337;SDS011;43173;50.980;18.204;2023-10-09T01:34:18;9.80;;;5.30;;
57337;SDS011;43173;50.980;18.204;2023-10-09T01:36:49;10.20;;;5.30;;
57337;SDS011;43173;50.980;18.204;2023-10-09T01:39:19;8.80;;;5.40;;
57337;SDS011;43173;50.980;18.204;2023-10-09T01:42:00;10.60;;;4.90;;
57337;SDS011;43173;50.980;18.204;2023-10-09T01:44:31;10.00;;;4.90;;
57337;SDS011;43173;50.980;18.204;2023-10-09T01:47:04;10.30;;;5.90;;
57337;SDS011;43173;50.980;18.204;2023-10-09T01:49:34;10.20;;;5.80;;
57337;SDS011;43173;50.980;18.204;2023-10-09T01:52:02;10.00;;;5.60;;
57337;SDS011;43173;50.980;18.204;2023-10-09T01:54:37;9.20;;;5.40;;
57337;SDS011;43173;50.980;18.204;2023-10-09T01:57:03;12.50;;;5.60;;
57337;SDS011;43173;50.980;18.204;2023-10-09T01:59:41;8.10;;;4.50;;
57337;SDS011;43173;50.980;18.204;2023-10-09T02:02:15;11.60;;;5.40;;
57337;SDS011;43173;50.980;18.204;2023-10-09T02:04:58;9.20;;;5.10;;
57337;SDS011;43173;50.980;18.204;2023-10-09T02:07:46;9.70;;;4.90;;
57337;SDS011;43173;50.980;18.204;2023-10-09T02:10:18;11.70;;;4.40;;
57337;SDS011;43173;50.980;18.204;2023-10-09T02:12:52;7.50;;;4.70;;
57337;SDS011;43173;50.980;18.204;2023-10-09T02:15:27;10.00;;;5.00;;
57337;SDS011;43173;50.980;18.204;2023-10-09T02:18:10;7.80;;;4.50;;
57337;SDS011;43173;50.980;18.204;2023-10-09T02:20:49;8.90;;;4.30;;
57337;SDS011;43173;50.980;18.204;2023-10-09T02:23:26;10.30;;;4.40;;
57337;SDS011;43173;50.980;18.204;2023-10-09T02:26:09;8.40;;;4.00;;
57337;SDS011;43173;50.980;18.204;2023-10-09T02:28:35;8.80;;;4.20;;
57337;SDS011;43173;50.980;18.204;2023-10-09T02:31:09;9.20;;;4.50;;
57337;SDS011;43173;50.980;18.204;2023-10-09T02:33:36;10.00;;;4.90;;
57337;SDS011;43173;50.980;18.204;2023-10-09T02:36:07;10.20;;;5.10;;
57337;SDS011;43173;50.980;18.204;2023-10-09T02:38:33;10.20;;;5.00;;
57337;SDS011;43173;50.980;18.204;2023-10-09T02:41:01;9.00;;;4.80;;
57337;SDS011;43173;50.980;18.204;2023-10-09T02:43:28;10.80;;;5.60;;
57337;SDS011;43173;50.980;18.204;2023-10-09T02:46:06;8.80;;;5.30;;
57337;SDS011;43173;50.980;18.204;2023-10-09T02:48:47;7.00;;;4.20;;
57337;SDS011;43173;50.980;18.204;2023-10-09T02:51:16;9.30;;;4.50;;
57337;SDS011;43173;50.980;18.204;2023-10-09T02:53:54;6.80;;;4.30;;
57337;SDS011;43173;50.980;18.204;2023-10-09T02:56:24;9.10;;;4.90;;
57337;SDS011;43173;50.980;18.204;2023-10-09T02:59:01;10.80;;;4.60;;
57337;SDS011;43173;50.980;18.204;2023-10-09T03:01:31;9.20;;;4.90;;
57337;SDS011;43173;50.980;18.204;2023-10-09T03:04:06;10.10;;;4.70;;
57337;SDS011;43173;50.980;18.204;2023-10-09T03:06:36;10.40;;;4.50;;
57337;SDS011;43173;50.980;18.204;2023-10-09T03:09:05;10.00;;;5.00;;
57337;SDS011;43173;50.980;18.204;2023-10-09T03:11:45;9.00;;;4.50;;
57337;SDS011;43173;50.980;18.204;2023-10-09T03:14:22;10.20;;;4.90;;
57337;SDS011;43173;50.980;18.204;2023-10-09T03:16:54;9.20;;;4.50;;
57337;SDS011;43173;50.980;18.204;2023-10-09T03:19:27;10.10;;;4.40;;
57337;SDS011;43173;50.980;18.204;2023-10-09T03:21:54;7.60;;;4.60;;
57337;SDS011;43173;50.980;18.204;2023-10-09T03:24:23;8.30;;;4.50;;
57337;SDS011;43173;50.980;18.204;2023-10-09T03:26:50;9.40;;;4.90;;
57337;SDS011;43173;50.980;18.204;2023-10-09T03:29:15;9.30;;;4.10;;
57337;SDS011;43173;50.980;18.204;2023-10-09T03:31:45;6.40;;;4.40;;
57337;SDS011;43173;50.980;18.204;2023-10-09T03:34:11;8.90;;;4.60;;
57337;SDS011;43173;50.980;18.204;2023-10-09T03:36:37;7.10;;;4.50;;
57337;SDS011;43173;50.980;18.204;2023-10-09T03:39:07;7.80;;;4.00;;
57337;SDS011;43173;50.980;18.204;2023-10-09T03:41:48;8.00;;;4.90;;
57337;SDS011;43173;50.980;18.204;2023-10-09T03:44:15;7.50;;;4.00;;
57337;SDS011;43173;50.980;18.204;2023-10-09T03:46:44;8.00;;;4.30;;
57337;SDS011;43173;50.980;18.204;2023-10-09T03:49:10;10.40;;;4.50;;
57337;SDS011;43173;50.980;18.204;2023-10-09T03:51:38;9.00;;;4.70;;
57337;SDS011;43173;50.980;18.204;2023-10-09T03:54:04;9.00;;;4.50;;
57337;SDS011;43173;50.980;18.204;2023-10-09T03:56:33;9.60;;;4.70;;
57337;SDS011;43173;50.980;18.204;2023-10-09T03:59:00;9.00;;;4.60;;
57337;SDS011;43173;50.980;18.204;2023-10-09T04:01:28;7.60;;;4.10;;
57337;SDS011;43173;50.980;18.204;2023-10-09T04:03:54;9.60;;;4.60;;
57337;SDS011;43173;50.980;18.204;2023-10-09T04:06:24;7.50;;;3.90;;
57337;SDS011;43173;50.980;18.204;2023-10-09T04:11:24;8.40;;;3.80;;
57337;SDS011;43173;50.980;18.204;2023-10-09T04:13:51;8.00;;;4.20;;
57337;SDS011;43173;50.980;18.204;2023-10-09T04:16:25;8.60;;;4.50;;
57337;SDS011;43173;50.980;18.204;2023-10-09T04:19:02;6.50;;;4.10;;
57337;SDS011;43173;50.980;18.204;2023-10-09T04:21:36;10.10;;;4.00;;
57337;SDS011;43173;50.980;18.204;2023-10-09T04:24:06;7.20;;;3.90;;
57337;SDS011;43173;50.980;18.204;2023-10-09T04:26:42;9.30;;;4.00;;
57337;SDS011;43173;50.980;18.204;2023-10-09T04:29:13;7.30;;;4.30;;
57337;SDS011;43173;50.980;18.204;2023-10-09T04:31:45;6.40;;;3.60;;
57337;SDS011;43173;50.980;18.204;2023-10-09T04:34:19;7.10;;;4.30;;
57337;SDS011;43173;50.980;18.204;2023-10-09T04:39:33;8.00;;;4.00;;
57337;SDS011;43173;50.980;18.204;2023-10-09T04:42:02;9.00;;;4.70;;
57337;SDS011;43173;50.980;18.204;2023-10-09T04:44:43;8.40;;;4.60;;
57337;SDS011;43173;50.980;18.204;2023-10-09T04:52:43;9.80;;;5.30;;
57337;SDS011;43173;50.980;18.204;2023-10-09T04:55:08;13.10;;;5.10;;
57337;SDS011;43173;50.980;18.204;2023-10-09T05:00:06;8.20;;;5.00;;
57337;SDS011;43173;50.980;18.204;2023-10-09T05:02:48;14.50;;;5.40;;
57337;SDS011;43173;50.980;18.204;2023-10-09T05:05:20;13.20;;;5.30;;
57337;SDS011;43173;50.980;18.204;2023-10-09T05:08:02;13.50;;;4.90;;
57337;SDS011;43173;50.980;18.204;2023-10-09T05:10:45;8.00;;;4.50;;
57337;SDS011;43173;50.980;18.204;2023-10-09T05:13:28;10.00;;;4.70;;
57337;SDS011;43173;50.980;18.204;2023-10-09T05:18:41;13.30;;;5.60;;
57337;SDS011;43173;50.980;18.204;2023-10-09T05:21:10;10.10;;;4.40;;
57337;SDS011;43173;50.980;18.204;2023-10-09T05:23:39;11.40;;;5.10;;
57337;SDS011;43173;50.980;18.204;2023-10-09T05:26:14;11.40;;;5.20;;
57337;SDS011;43173;50.980;18.204;2023-10-09T05:28:56;12.80;;;5.50;;
57337;SDS011;43173;50.980;18.204;2023-10-09T05:31:23;11.90;;;6.30;;
57337;SDS011;43173;50.980;18.204;2023-10-09T05:36:32;11.90;;;5.80;;
57337;SDS011;43173;50.980;18.204;2023-10-09T05:39:01;12.30;;;6.10;;
57337;SDS011;43173;50.980;18.204;2023-10-09T05:41:43;8.20;;;4.80;;
57337;SDS011;43173;50.980;18.204;2023-10-09T05:44:26;10.00;;;4.40;;
57337;SDS011;43173;50.980;18.204;2023-10-09T05:47:07;9.10;;;3.90;;
57337;SDS011;43173;50.980;18.204;2023-10-09T05:49:49;10.40;;;3.90;;
57337;SDS011;43173;50.980;18.204;2023-10-09T05:52:26;11.20;;;5.60;;
57337;SDS011;43173;50.980;18.204;2023-10-09T05:55:08;7.90;;;4.30;;
57337;SDS011;43173;50.980;18.204;2023-10-09T05:57:51;10.90;;;5.10;;
57337;SDS011;43173;50.980;18.204;2023-10-09T06:00:23;10.80;;;4.50;;
57337;SDS011;43173;50.980;18.204;2023-10-09T06:03:05;9.90;;;4.80;;
57337;SDS011;43173;50.980;18.204;2023-10-09T06:05:47;10.60;;;4.60;;
57337;SDS011;43173;50.980;18.204;2023-10-09T06:08:16;8.10;;;4.30;;
57337;SDS011;43173;50.980;18.204;2023-10-09T06:10:50;10.80;;;5.40;;
57337;SDS011;43173;50.980;18.204;2023-10-09T06:13:34;9.00;;;4.90;;
57337;SDS011;43173;50.980;18.204;2023-10-09T06:16:06;12.50;;;6.60;;
57337;SDS011;43173;50.980;18.204;2023-10-09T06:18:47;14.30;;;5.70;;
57337;SDS011;43173;50.980;18.204;2023-10-09T06:21:36;10.90;;;5.70;;
57337;SDS011;43173;50.980;18.204;2023-10-09T06:27:11;13.50;;;6.50;;
57337;SDS011;43173;50.980;18.204;2023-10-09T06:29:41;14.50;;;7.60;;
57337;SDS011;43173;50.980;18.204;2023-10-09T06:32:11;13.10;;;6.60;;
57337;SDS011;43173;50.980;18.204;2023-10-09T06:46:37;13.20;;;7.10;;
57337;SDS011;43173;50.980;18.204;2023-10-09T06:49:09;13.00;;;5.90;;
57337;SDS011;43173;50.980;18.204;2023-10-09T06:51:50;11.70;;;5.30;;
57337;SDS011;43173;50.980;18.204;2023-10-09T06:54:20;12.40;;;5.40;;
57337;SDS011;43173;50.980;18.204;2023-10-09T06:56:50;12.40;;;5.90;;
57337;SDS011;43173;50.980;18.204;2023-10-09T06:59:19;10.50;;;5.20;;
57337;SDS011;43173;50.980;18.204;2023-10-09T07:01:49;11.30;;;5.30;;
57337;SDS011;43173;50.980;18.204;2023-10-09T07:04:31;9.90;;;5.20;;
57337;SDS011;43173;50.980;18.204;2023-10-09T07:06:56;14.20;;;6.50;;
57337;SDS011;43173;50.980;18.204;2023-10-09T07:09:22;10.10;;;5.40;;
57337;SDS011;43173;50.980;18.204;2023-10-09T07:11:49;10.20;;;4.80;;
57337;SDS011;43173;50.980;18.204;2023-10-09T07:14:19;12.20;;;5.20;;
57337;SDS011;43173;50.980;18.204;2023-10-09T07:17:03;8.20;;;4.70;;
57337;SDS011;43173;50.980;18.204;2023-10-09T07:19:41;8.70;;;4.40;;
57337;SDS011;43173;50.980;18.204;2023-10-09T07:22:11;9.30;;;4.80;;
57337;SDS011;43173;50.980;18.204;2023-10-09T07:24:53;12.50;;;4.40;;
57337;SDS011;43173;50.980;18.204;2023-10-09T07:27:23;13.40;;;5.80;;
57337;SDS011;43173;50.980;18.204;2023-10-09T07:38:15;9.10;;;5.10;;
57337;SDS011;43173;50.980;18.204;2023-10-09T07:40:45;9.40;;;5.10;;
57337;SDS011;43173;50.980;18.204;2023-10-09T07:43:37;12.10;;;5.40;;
57337;SDS011;43173;50.980;18.204;2023-10-09T07:46:13;11.10;;;4.60;;
57337;SDS011;43173;50.980;18.204;2023-10-09T07:48:56;10.80;;;5.70;;
57337;SDS011;43173;50.980;18.204;2023-10-09T07:51:35;10.20;;;5.00;;
57337;SDS011;43173;50.980;18.204;2023-10-09T07:54:02;10.20;;;4.40;;
57337;SDS011;43173;50.980;18.204;2023-10-09T07:56:37;9.70;;;3.90;;
57337;SDS011;43173;50.980;18.204;2023-10-09T07:59:09;11.10;;;4.10;;
57337;SDS011;43173;50.980;18.204;2023-10-09T08:01:43;9.80;;;3.50;;
57337;SDS011;43173;50.980;18.204;2023-10-09T08:04:26;6.30;;;3.30;;
57337;SDS011;43173;50.980;18.204;2023-10-09T08:07:08;7.50;;;2.80;;
57337;SDS011;43173;50.980;18.204;2023-10-09T08:09:37;7.90;;;3.10;;
57337;SDS011;43173;50.980;18.204;2023-10-09T08:12:19;9.10;;;3.50;;
57337;SDS011;43173;50.980;18.204;2023-10-09T08:14:48;7.60;;;3.80;;
57337;SDS011;43173;50.980;18.204;2023-10-09T08:17:14;6.90;;;3.50;;
57337;SDS011;43173;50.980;18.204;2023-10-09T08:19:55;4.60;;;3.00;;
57337;SDS011;43173;50.980;18.204;2023-10-09T08:22:24;8.00;;;3.60;;
57337;SDS011;43173;50.980;18.204;2023-10-09T08:24:51;6.80;;;4.00;;
57337;SDS011;43173;50.980;18.204;2023-10-09T08:27:26;7.10;;;4.00;;
57337;SDS011;43173;50.980;18.204;2023-10-09T08:29:55;7.50;;;3.90;;
57337;SDS011;43173;50.980;18.204;2023-10-09T08:32:40;7.00;;;4.10;;
57337;SDS011;43173;50.980;18.204;2023-10-09T08:35:08;7.60;;;4.40;;
57337;SDS011;43173;50.980;18.204;2023-10-09T08:37:50;9.00;;;4.60;;
57337;SDS011;43173;50.980;18.204;2023-10-09T08:40:16;5.90;;;4.00;;
57337;SDS011;43173;50.980;18.204;2023-10-09T08:42:53;9.30;;;5.20;;
57337;SDS011;43173;50.980;18.204;2023-10-09T08:45:21;9.10;;;4.90;;
57337;SDS011;43173;50.980;18.204;2023-10-09T08:47:55;7.00;;;3.60;;
57337;SDS011;43173;50.980;18.204;2023-10-09T08:50:21;7.50;;;3.70;;
57337;SDS011;43173;50.980;18.204;2023-10-09T08:52:50;6.10;;;3.40;;
57337;SDS011;43173;50.980;18.204;2023-10-09T08:55:16;8.40;;;4.00;;
57337;SDS011;43173;50.980;18.204;2023-10-09T08:57:43;10.50;;;4.70;;
57337;SDS011;43173;50.980;18.204;2023-10-09T09:00:17;10.40;;;4.60;;
57337;SDS011;43173;50.980;18.204;2023-10-09T09:02:55;10.80;;;4.10;;
57337;SDS011;43173;50.980;18.204;2023-10-09T09:05:20;9.40;;;4.50;;
57337;SDS011;43173;50.980;18.204;2023-10-09T09:07:47;6.90;;;3.30;;
57337;SDS011;43173;50.980;18.204;2023-10-09T09:10:15;5.10;;;2.80;;
57337;SDS011;43173;50.980;18.204;2023-10-09T09:12:47;4.30;;;2.70;;
57337;SDS011;43173;50.980;18.204;2023-10-09T09:15:19;6.10;;;3.40;;
57337;SDS011;43173;50.980;18.204;2023-10-09T09:17:46;7.70;;;4.20;;
57337;SDS011;43173;50.980;18.204;2023-10-09T09:20:19;10.50;;;4.20;;
57337;SDS011;43173;50.980;18.204;2023-10-09T09:22:52;6.80;;;3.70;;
57337;SDS011;43173;50.980;18.204;2023-10-09T09:25:21;7.10;;;3.90;;
57337;SDS011;43173;50.980;18.204;2023-10-09T09:27:50;10.40;;;4.40;;
57337;SDS011;43173;50.980;18.204;2023-10-09T09:30:23;8.80;;;4.20;;
57337;SDS011;43173;50.980;18.204;2023-10-09T09:35:33;11.70;;;7.20;;
57337;SDS011;43173;50.980;18.204;2023-10-09T09:37:59;6.10;;;4.40;;
57337;SDS011;43173;50.980;18.204;2023-10-09T09:40:30;7.90;;;3.90;;
57337;SDS011;43173;50.980;18.204;2023-10-09T09:42:59;9.50;;;4.40;;
57337;SDS011;43173;50.980;18.204;2023-10-09T09:45:36;7.40;;;4.30;;
57337;SDS011;43173;50.980;18.204;2023-10-09T09:48:04;7.50;;;4.20;;
57337;SDS011;43173;50.980;18.204;2023-10-09T09:50:40;8.30;;;5.30;;
57337;SDS011;43173;50.980;18.204;2023-10-09T09:53:13;8.70;;;3.80;;
57337;SDS011;43173;50.980;18.204;2023-10-09T09:55:49;7.90;;;3.80;;
57337;SDS011;43173;50.980;18.204;2023-10-09T09:58:31;6.40;;;4.10;;
57337;SDS011;43173;50.980;18.204;2023-10-09T10:01:07;8.70;;;4.20;;
57337;SDS011;43173;50.980;18.204;2023-10-09T10:03:45;5.60;;;3.80;;
57337;SDS011;43173;50.980;18.204;2023-10-09T10:06:14;6.00;;;3.70;;
57337;SDS011;43173;50.980;18.204;2023-10-09T10:08:43;8.60;;;4.10;;
57337;SDS011;43173;50.980;18.204;2023-10-09T10:11:18;6.70;;;4.30;;
57337;SDS011;43173;50.980;18.204;2023-10-09T10:14:11;10.20;;;5.60;;
57337;SDS011;43173;50.980;18.204;2023-10-09T10:16:59;7.40;;;5.00;;
57337;SDS011;43173;50.980;18.204;2023-10-09T10:19:25;10.20;;;5.20;;
57337;SDS011;43173;50.980;18.204;2023-10-09T10:22:39;7.60;;;5.10;;
57337;SDS011;43173;50.980;18.204;2023-10-09T10:25:05;4.70;;;3.20;;
57337;SDS011;43173;50.980;18.204;2023-10-09T10:27:34;5.30;;;3.30;;
57337;SDS011;43173;50.980;18.204;2023-10-09T10:35:18;4.70;;;3.20;;
57337;SDS011;43173;50.980;18.204;2023-10-09T10:43:42;6.30;;;2.80;;
57337;SDS011;43173;50.980;18.204;2023-10-09T10:46:25;4.80;;;2.70;;
57337;SDS011;43173;50.980;18.204;2023-10-09T10:49:00;4.70;;;3.10;;
57337;SDS011;43173;50.980;18.204;2023-10-09T10:51:40;6.10;;;2.90;;
57337;SDS011;43173;50.980;18.204;2023-10-09T10:54:07;6.30;;;3.40;;
57337;SDS011;43173;50.980;18.204;2023-10-09T10:56:49;7.50;;;3.40;;
57337;SDS011;43173;50.980;18.204;2023-10-09T10:59:15;6.80;;;3.00;;
57337;SDS011;43173;50.980;18.204;2023-10-09T11:01:51;8.80;;;4.10;;
57337;SDS011;43173;50.980;18.204;2023-10-09T11:04:34;10.30;;;5.00;;
57337;SDS011;43173;50.980;18.204;2023-10-09T11:07:00;6.50;;;3.70;;
57337;SDS011;43173;50.980;18.204;2023-10-09T11:21:37;5.90;;;3.60;;
57337;SDS011;43173;50.980;18.204;2023-10-09T11:24:08;6.20;;;3.30;;
57337;SDS011;43173;50.980;18.204;2023-10-09T11:26:50;6.90;;;4.10;;
57337;SDS011;43173;50.980;18.204;2023-10-09T11:29:21;6.20;;;3.50;;
57337;SDS011;43173;50.980;18.204;2023-10-09T11:32:04;6.60;;;3.20;;
57337;SDS011;43173;50.980;18.204;2023-10-09T11:34:31;4.80;;;3.30;;
57337;SDS011;43173;50.980;18.204;2023-10-09T11:36:59;5.30;;;2.70;;
57337;SDS011;43173;50.980;18.204;2023-10-09T11:39:27;4.50;;;3.00;;
57337;SDS011;43173;50.980;18.204;2023-10-09T11:42:01;6.60;;;3.80;;
57337;SDS011;43173;50.980;18.204;2023-10-09T11:47:20;6.90;;;3.80;;
57337;SDS011;43173;50.980;18.204;2023-10-09T11:49:48;5.00;;;3.50;;
57337;SDS011;43173;50.980;18.204;2023-10-09T11:55:37;11.30;;;5.80;;
57337;SDS011;43173;50.980;18.204;2023-10-09T11:58:03;12.00;;;6.30;;
57337;SDS011;43173;50.980;18.204;2023-10-09T12:00:30;14.40;;;8.00;;
57337;SDS011;43173;50.980;18.204;2023-10-09T12:03:10;9.60;;;6.80;;
57337;SDS011;43173;50.980;18.204;2023-10-09T12:05:36;15.00;;;6.70;;
57337;SDS011;43173;50.980;18.204;2023-10-09T12:08:03;14.20;;;9.20;;
57337;SDS011;43173;50.980;18.204;2023-10-09T12:10:33;8.30;;;5.70;;
57337;SDS011;43173;50.980;18.204;2023-10-09T12:13:03;11.20;;;6.70;;
57337;SDS011;43173;50.980;18.204;2023-10-09T12:15:31;8.70;;;4.90;;
57337;SDS011;43173;50.980;18.204;2023-10-09T12:18:06;8.50;;;5.70;;
57337;SDS011;43173;50.980;18.204;2023-10-09T12:20:41;11.00;;;7.80;;
57337;SDS011;43173;50.980;18.204;2023-10-09T12:23:07;7.50;;;5.50;;
57337;SDS011;43173;50.980;18.204;2023-10-09T12:25:33;6.50;;;5.10;;
57337;SDS011;43173;50.980;18.204;2023-10-09T12:28:01;9.90;;;5.50;;
57337;SDS011;43173;50.980;18.204;2023-10-09T12:30:31;8.10;;;6.10;;
57337;SDS011;43173;50.980;18.204;2023-10-09T12:33:03;9.50;;;6.30;;
57337;SDS011;43173;50.980;18.204;2023-10-09T12:35:29;13.40;;;7.60;;
57337;SDS011;43173;50.980;18.204;2023-10-09T12:37:59;8.10;;;4.90;;
57337;SDS011;43173;50.980;18.204;2023-10-09T12:40:25;7.00;;;5.30;;
57337;SDS011;43173;50.980;18.204;2023-10-09T12:42:54;10.90;;;6.90;;
57337;SDS011;43173;50.980;18.204;2023-10-09T12:45:21;11.20;;;7.80;;
57337;SDS011;43173;50.980;18.204;2023-10-09T12:47:56;17.10;;;11.50;;
57337;SDS011;43173;50.980;18.204;2023-10-09T12:50:25;22.10;;;14.70;;
57337;SDS011;43173;50.980;18.204;2023-10-09T12:52:58;16.70;;;10.80;;
57337;SDS011;43173;50.980;18.204;2023-10-09T12:55:28;14.60;;;10.70;;
57337;SDS011;43173;50.980;18.204;2023-10-09T12:58:00;13.90;;;9.70;;
57337;SDS011;43173;50.980;18.204;2023-10-09T13:02:58;8.90;;;6.00;;
57337;SDS011;43173;50.980;18.204;2023-10-09T13:05:27;7.50;;;6.00;;
57337;SDS011;43173;50.980;18.204;2023-10-09T13:07:53;7.30;;;5.60;;
57337;SDS011;43173;50.980;18.204;2023-10-09T13:10:21;6.90;;;5.60;;
57337;SDS011;43173;50.980;18.204;2023-10-09T13:12:49;12.40;;;7.50;;
57337;SDS011;43173;50.980;18.204;2023-10-09T13:15:20;9.50;;;6.70;;
57337;SDS011;43173;50.980;18.204;2023-10-09T13:17:46;9.80;;;7.20;;
57337;SDS011;43173;50.980;18.204;2023-10-09T13:20:12;12.10;;;8.90;;
57337;SDS011;43173;50.980;18.204;2023-10-09T13:22:41;9.60;;;7.90;;
57337;SDS011;43173;50.980;18.204;2023-10-09T13:25:09;13.60;;;11.30;;
57337;SDS011;43173;50.980;18.204;2023-10-09T13:27:44;13.60;;;10.30;;
57337;SDS011;43173;50.980;18.204;2023-10-09T13:30:16;13.70;;;10.70;;
57337;SDS011;43173;50.980;18.204;2023-10-09T13:32:50;11.60;;;8.30;;
57337;SDS011;43173;50.980;18.204;2023-10-09T13:35:18;12.00;;;8.70;;
57337;SDS011;43173;50.980;18.204;2023-10-09T13:37:47;11.40;;;7.70;;
57337;SDS011;43173;50.980;18.204;2023-10-09T13:40:22;11.40;;;9.30;;
57337;SDS011;43173;50.980;18.204;2023-10-09T13:42:58;12.70;;;9.50;;
57337;SDS011;43173;50.980;18.204;2023-10-09T13:45:27;15.70;;;10.60;;
57337;SDS011;43173;50.980;18.204;2023-10-09T13:47:56;16.10;;;11.60;;
57337;SDS011;43173;50.980;18.204;2023-10-09T13:50:25;18.70;;;12.90;;
57337;SDS011;43173;50.980;18.204;2023-10-09T13:52:57;18.30;;;13.70;;
57337;SDS011;43173;50.980;18.204;2023-10-09T13:55:23;21.10;;;14.40;;
57337;SDS011;43173;50.980;18.204;2023-10-09T13:57:57;19.10;;;13.90;;
57337;SDS011;43173;50.980;18.204;2023-10-09T14:00:23;18.00;;;13.00;;
57337;SDS011;43173;50.980;18.204;2023-10-09T14:03:05;17.00;;;12.30;;
57337;SDS011;43173;50.980;18.204;2023-10-09T14:05:37;14.90;;;11.10;;
57337;SDS011;43173;50.980;18.204;2023-10-09T14:08:10;13.90;;;10.60;;
57337;SDS011;43173;50.980;18.204;2023-10-09T14:10:38;15.10;;;9.90;;
57337;SDS011;43173;50.980;18.204;2023-10-09T14:13:04;16.20;;;9.40;;
57337;SDS011;43173;50.980;18.204;2023-10-09T14:15:37;13.90;;;9.90;;
57337;SDS011;43173;50.980;18.204;2023-10-09T14:18:06;15.30;;;11.40;;
57337;SDS011;43173;50.980;18.204;2023-10-09T14:20:39;18.20;;;12.10;;
57337;SDS011;43173;50.980;18.204;2023-10-09T14:23:06;19.30;;;11.60;;
57337;SDS011;43173;50.980;18.204;2023-10-09T14:25:35;23.20;;;11.50;;
57337;SDS011;43173;50.980;18.204;2023-10-09T14:28:09;18.70;;;11.10;;
57337;SDS011;43173;50.980;18.204;2023-10-09T14:30:35;16.90;;;10.90;;
57337;SDS011;43173;50.980;18.204;2023-10-09T14:33:08;16.90;;;12.30;;
57337;SDS011;43173;50.980;18.204;2023-10-09T14:35:38;14.00;;;10.50;;
57337;SDS011;43173;50.980;18.204;2023-10-09T14:38:05;16.50;;;12.30;;
57337;SDS011;43173;50.980;18.204;2023-10-09T14:43:09;17.80;;;11.70;;
57337;SDS011;43173;50.980;18.204;2023-10-09T14:47:38;25.60;;;15.40;;
57337;SDS011;43173;50.980;18.204;2023-10-09T14:50:04;22.70;;;16.00;;
57337;SDS011;43173;50.980;18.204;2023-10-09T14:52:33;21.00;;;16.00;;
57337;SDS011;43173;50.980;18.204;2023-10-09T14:54:59;22.30;;;17.90;;
57337;SDS011;43173;50.980;18.204;2023-10-09T14:57:25;24.00;;;15.80;;
57337;SDS011;43173;50.980;18.204;2023-10-09T14:59:52;21.50;;;14.10;;
57337;SDS011;43173;50.980;18.204;2023-10-09T15:02:18;20.00;;;13.20;;
57337;SDS011;43173;50.980;18.204;2023-10-09T15:04:44;17.50;;;13.70;;
57337;SDS011;43173;50.980;18.204;2023-10-09T15:07:09;21.00;;;14.90;;
57337;SDS011;43173;50.980;18.204;2023-10-09T15:09:37;25.80;;;16.40;;
57337;SDS011;43173;50.980;18.204;2023-10-09T15:12:05;21.60;;;15.10;;
57337;SDS011;43173;50.980;18.204;2023-10-09T15:14:32;21.80;;;14.60;;
57337;SDS011;43173;50.980;18.204;2023-10-09T15:16:58;25.40;;;14.80;;
57337;SDS011;43173;50.980;18.204;2023-10-09T15:19:23;21.60;;;15.00;;
57337;SDS011;43173;50.980;18.204;2023-10-09T15:21:55;21.20;;;14.80;;
57337;SDS011;43173;50.980;18.204;2023-10-09T15:24:21;29.80;;;20.70;;
57337;SDS011;43173;50.980;18.204;2023-10-09T15:26:48;21.80;;;16.70;;
57337;SDS011;43173;50.980;18.204;2023-10-09T15:29:30;30.00;;;19.80;;
57337;SDS011;43173;50.980;18.204;2023-10-09T15:31:58;22.10;;;16.40;;
57337;SDS011;43173;50.980;18.204;2023-10-09T15:34:30;20.90;;;15.30;;
57337;SDS011;43173;50.980;18.204;2023-10-09T15:36:56;19.40;;;13.50;;
57337;SDS011;43173;50.980;18.204;2023-10-09T15:39:22;19.40;;;14.50;;
57337;SDS011;43173;50.980;18.204;2023-10-09T15:41:49;19.30;;;14.60;;
57337;SDS011;43173;50.980;18.204;2023-10-09T15:44:16;18.30;;;13.50;;
57337;SDS011;43173;50.980;18.204;2023-10-09T15:46:42;20.90;;;14.50;;
57337;SDS011;43173;50.980;18.204;2023-10-09T15:49:11;19.70;;;13.70;;
57337;SDS011;43173;50.980;18.204;2023-10-09T15:51:39;17.50;;;12.00;;
57337;SDS011;43173;50.980;18.204;2023-10-09T15:54:05;25.00;;;14.40;;
57337;SDS011;43173;50.980;18.204;2023-10-09T15:56:30;22.10;;;14.50;;
57337;SDS011;43173;50.980;18.204;2023-10-09T15:58:56;21.80;;;15.00;;
57337;SDS011;43173;50.980;18.204;2023-10-09T16:01:22;22.60;;;14.50;;
57337;SDS011;43173;50.980;18.204;2023-10-09T16:03:48;23.30;;;15.00;;
57337;SDS011;43173;50.980;18.204;2023-10-09T16:06:15;29.00;;;17.50;;
57337;SDS011;43173;50.980;18.204;2023-10-09T16:08:42;32.10;;;18.90;;
57337;SDS011;43173;50.980;18.204;2023-10-09T16:11:11;31.90;;;18.80;;
57337;SDS011;43173;50.980;18.204;2023-10-09T16:13:40;32.90;;;18.50;;
57337;SDS011;43173;50.980;18.204;2023-10-09T16:16:05;28.20;;;16.90;;